sensor_id;sensor_type;location;lat;lon;timestamp;P1;P2;P0
34240;PMS7003;20503;50.200;19.508;2023-02-28T00:01:19;38;25;12
34240;PMS7003;20503;50.200;19.508;2023-02-28T00:06:27;26;17;10
34240;PMS7003;20503;50.200;19.508;2023-02-28T00:11:34;51;34;19
34240;PMS7003;20503;50.200;19.508;2023-02-28T00:16:43;40;23;12
34240;PMS7003;20503;50.200;19.508;2023-02-28T00:21:50;23;17;12
34240;PMS7003;20503;50.200;19.508;2023-02-28T00:26:58;20;16;10
34240;PMS7003;20503;50.200;19.508;2023-02-28T00:32:06;23;17;12
34240;PMS7003;20503;50.200;19.508;2023-02-28T00:37:13;18;17;10
34240;PMS7003;20503;50.200;19.508;2023-02-28T00:42:21;19;16;9
34240;PMS7003;20503;50.200;19.508;2023-02-28T00:47:29;20;16;7
34240;PMS7003;20503;50.200;19.508;2023-02-28T00:52:36;21;10;7
34240;PMS7003;20503;50.200;19.508;2023-02-28T00:57:44;18;12;9
34240;PMS7003;20503;50.200;19.508;2023-02-28T01:02:51;13;9;6
34240;PMS7003;20503;50.200;19.508;2023-02-28T01:07:59;12;11;6
34240;PMS7003;20503;50.200;19.508;2023-02-28T01:13:07;13;8;6
34240;PMS7003;20503;50.200;19.508;2023-02-28T01:18:15;28;19;8
34240;PMS7003;20503;50.200;19.508;2023-02-28T01:23:22;18;12;8
34240;PMS7003;20503;50.200;19.508;2023-02-28T01:28:30;15;12;8
34240;PMS7003;20503;50.200;19.508;2023-02-28T01:33:39;13;8;6
34240;PMS7003;20503;50.200;19.508;2023-02-28T01:38:47;10;10;8
34240;PMS7003;20503;50.200;19.508;2023-02-28T01:43:55;12;6;4
34240;PMS7003;20503;50.200;19.508;2023-02-28T01:49:04;12;10;7
34240;PMS7003;20503;50.200;19.508;2023-02-28T01:54:14;12;11;7
34240;PMS7003;20503;50.200;19.508;2023-02-28T01:59:22;14;7;5
34240;PMS7003;20503;50.200;19.508;2023-02-28T02:04:32;13;10;7
34240;PMS7003;20503;50.200;19.508;2023-02-28T02:09:42;17;10;5
34240;PMS7003;20503;50.200;19.508;2023-02-28T02:14:47;13;8;5
34240;PMS7003;20503;50.200;19.508;2023-02-28T02:40:57;8;8;4
34240;PMS7003;20503;50.200;19.508;2023-02-28T02:46:10;17;12;8
34240;PMS7003;20503;50.200;19.508;2023-02-28T02:51:17;15;12;8
34240;PMS7003;20503;50.200;19.508;2023-02-28T02:56:25;18;11;8
34240;PMS7003;20503;50.200;19.508;2023-02-28T03:01:33;15;10;8
34240;PMS7003;20503;50.200;19.508;2023-02-28T03:06:43;18;14;9
34240;PMS7003;20503;50.200;19.508;2023-02-28T03:11:46;15;11;6
34240;PMS7003;20503;50.200;19.508;2023-02-28T03:32:38;10;10;6
34240;PMS7003;20503;50.200;19.508;2023-02-28T03:37:43;14;11;6
34240;PMS7003;20503;50.200;19.508;2023-02-28T03:42:47;20;13;8
34240;PMS7003;20503;50.200;19.508;2023-02-28T03:47:57;17;13;10
34240;PMS7003;20503;50.200;19.508;2023-02-28T03:53:09;17;12;8
34240;PMS7003;20503;50.200;19.508;2023-02-28T03:58:24;11;10;8
34240;PMS7003;20503;50.200;19.508;2023-02-28T04:03:32;17;14;10
34240;PMS7003;20503;50.200;19.508;2023-02-28T04:08:34;33;25;14
34240;PMS7003;20503;50.200;19.508;2023-02-28T04:13:36;30;18;12
34240;PMS7003;20503;50.200;19.508;2023-02-28T04:18:40;17;12;8
34240;PMS7003;20503;50.200;19.508;2023-02-28T04:23:43;12;8;6
34240;PMS7003;20503;50.200;19.508;2023-02-28T04:28:44;12;8;6
34240;PMS7003;20503;50.200;19.508;2023-02-28T04:33:46;10;6;5
34240;PMS7003;20503;50.200;19.508;2023-02-28T04:38:47;12;10;6
34240;PMS7003;20503;50.200;19.508;2023-02-28T04:43:53;15;10;8
34240;PMS7003;20503;50.200;19.508;2023-02-28T04:48:58;14;10;8
34240;PMS7003;20503;50.200;19.508;2023-02-28T04:54:02;12;10;8
34240;PMS7003;20503;50.200;19.508;2023-02-28T04:59:05;19;12;6
34240;PMS7003;20503;50.200;19.508;2023-02-28T05:04:08;15;10;8
34240;PMS7003;20503;50.200;19.508;2023-02-28T05:09:11;14;12;8
34240;PMS7003;20503;50.200;19.508;2023-02-28T05:14:15;17;9;7
34240;PMS7003;20503;50.200;19.508;2023-02-28T05:19:21;14;10;6
34240;PMS7003;20503;50.200;19.508;2023-02-28T05:24:29;19;11;7
34240;PMS7003;20503;50.200;19.508;2023-02-28T05:29:37;21;14;8
34240;PMS7003;20503;50.200;19.508;2023-02-28T05:34:46;16;12;8
34240;PMS7003;20503;50.200;19.508;2023-02-28T05:39:53;19;12;8
34240;PMS7003;20503;50.200;19.508;2023-02-28T05:45:00;18;14;10
34240;PMS7003;20503;50.200;19.508;2023-02-28T05:50:09;31;20;11
34240;PMS7003;20503;50.200;19.508;2023-02-28T05:55:17;22;16;10
34240;PMS7003;20503;50.200;19.508;2023-02-28T06:00:25;24;16;10
34240;PMS7003;20503;50.200;19.508;2023-02-28T06:05:32;28;16;10
34240;PMS7003;20503;50.200;19.508;2023-02-28T06:10:40;32;18;12
34240;PMS7003;20503;50.200;19.508;2023-02-28T06:15:48;50;35;20
34240;PMS7003;20503;50.200;19.508;2023-02-28T06:20:57;44;30;18
34240;PMS7003;20503;50.200;19.508;2023-02-28T06:26:05;30;24;13
34240;PMS7003;20503;50.200;19.508;2023-02-28T06:31:14;109;77;38
34240;PMS7003;20503;50.200;19.508;2023-02-28T06:36:21;69;46;26
34240;PMS7003;20503;50.200;19.508;2023-02-28T06:41:29;41;30;16
34240;PMS7003;20503;50.200;19.508;2023-02-28T06:46:38;32;24;12
34240;PMS7003;20503;50.200;19.508;2023-02-28T06:51:44;24;19;11
34240;PMS7003;20503;50.200;19.508;2023-02-28T06:56:52;49;35;19
34240;PMS7003;20503;50.200;19.508;2023-02-28T07:01:59;48;32;16
34240;PMS7003;20503;50.200;19.508;2023-02-28T07:07:08;65;45;25
34240;PMS7003;20503;50.200;19.508;2023-02-28T07:12:15;38;30;17
34240;PMS7003;20503;50.200;19.508;2023-02-28T07:17:23;33;24;14
34240;PMS7003;20503;50.200;19.508;2023-02-28T07:22:30;36;30;17
34240;PMS7003;20503;50.200;19.508;2023-02-28T07:27:38;25;23;12
34240;PMS7003;20503;50.200;19.508;2023-02-28T07:32:45;24;15;11
34240;PMS7003;20503;50.200;19.508;2023-02-28T07:37:53;28;22;12
34240;PMS7003;20503;50.200;19.508;2023-02-28T07:43:01;35;19;13
34240;PMS7003;20503;50.200;19.508;2023-02-28T07:48:08;39;26;14
34240;PMS7003;20503;50.200;19.508;2023-02-28T07:53:16;31;21;13
34240;PMS7003;20503;50.200;19.508;2023-02-28T07:58:24;23;20;13
34240;PMS7003;20503;50.200;19.508;2023-02-28T08:03:31;41;28;15
34240;PMS7003;20503;50.200;19.508;2023-02-28T08:08:40;41;30;15
34240;PMS7003;20503;50.200;19.508;2023-02-28T08:13:47;26;20;11
34240;PMS7003;20503;50.200;19.508;2023-02-28T08:18:55;25;22;13
34240;PMS7003;20503;50.200;19.508;2023-02-28T08:24:03;27;19;12
34240;PMS7003;20503;50.200;19.508;2023-02-28T08:29:10;36;24;13
34240;PMS7003;20503;50.200;19.508;2023-02-28T08:34:18;25;21;14
34240;PMS7003;20503;50.200;19.508;2023-02-28T08:39:25;39;25;14
34240;PMS7003;20503;50.200;19.508;2023-02-28T08:44:34;36;23;14
34240;PMS7003;20503;50.200;19.508;2023-02-28T08:49:42;28;24;15
34240;PMS7003;20503;50.200;19.508;2023-02-28T08:54:49;30;21;15
34240;PMS7003;20503;50.200;19.508;2023-02-28T08:59:57;26;20;13
34240;PMS7003;20503;50.200;19.508;2023-02-28T09:05:04;33;21;14
34240;PMS7003;20503;50.200;19.508;2023-02-28T09:10:12;35;26;15
34240;PMS7003;20503;50.200;19.508;2023-02-28T09:15:20;28;18;11
34240;PMS7003;20503;50.200;19.508;2023-02-28T09:20:28;26;17;11
34240;PMS7003;20503;50.200;19.508;2023-02-28T09:25:37;23;19;10
34240;PMS7003;20503;50.200;19.508;2023-02-28T09:30:44;21;13;10
34240;PMS7003;20503;50.200;19.508;2023-02-28T09:35:58;22;13;9
34240;PMS7003;20503;50.200;19.508;2023-02-28T09:41:02;15;12;8
34240;PMS7003;20503;50.200;19.508;2023-02-28T09:51:30;21;18;9
34240;PMS7003;20503;50.200;19.508;2023-02-28T09:56:40;24;21;12
34240;PMS7003;20503;50.200;19.508;2023-02-28T10:06:56;19;12;8
34240;PMS7003;20503;50.200;19.508;2023-02-28T10:12:03;17;11;9
34240;PMS7003;20503;50.200;19.508;2023-02-28T10:22:19;20;13;9
34240;PMS7003;20503;50.200;19.508;2023-02-28T10:27:28;17;11;9
34240;PMS7003;20503;50.200;19.508;2023-02-28T10:32:32;20;16;11
34240;PMS7003;20503;50.200;19.508;2023-02-28T10:37:39;27;23;15
34240;PMS7003;20503;50.200;19.508;2023-02-28T10:42:54;49;39;23
34240;PMS7003;20503;50.200;19.508;2023-02-28T10:47:56;26;17;10
34240;PMS7003;20503;50.200;19.508;2023-02-28T11:08:34;27;16;12
34240;PMS7003;20503;50.200;19.508;2023-02-28T11:13:41;20;17;10
34240;PMS7003;20503;50.200;19.508;2023-02-28T11:23:51;34;18;8
34240;PMS7003;20503;50.200;19.508;2023-02-28T11:39:26;38;28;16
34240;PMS7003;20503;50.200;19.508;2023-02-28T12:10:42;20;15;9
34240;PMS7003;20503;50.200;19.508;2023-02-28T12:15:55;23;19;11
34240;PMS7003;20503;50.200;19.508;2023-02-28T12:31:30;18;11;8
34240;PMS7003;20503;50.200;19.508;2023-02-28T12:36:36;24;16;10
34240;PMS7003;20503;50.200;19.508;2023-02-28T12:46:54;29;22;14
34240;PMS7003;20503;50.200;19.508;2023-02-28T12:52:02;24;19;12
34240;PMS7003;20503;50.200;19.508;2023-02-28T12:57:07;29;20;11
34240;PMS7003;20503;50.200;19.508;2023-02-28T13:18:00;38;29;16
34240;PMS7003;20503;50.200;19.508;2023-02-28T13:23:02;29;25;14
34240;PMS7003;20503;50.200;19.508;2023-02-28T13:28:11;39;32;16
34240;PMS7003;20503;50.200;19.508;2023-02-28T13:33:42;26;19;11
34240;PMS7003;20503;50.200;19.508;2023-02-28T13:38:37;32;22;14
34240;PMS7003;20503;50.200;19.508;2023-02-28T13:48:51;21;14;11
34240;PMS7003;20503;50.200;19.508;2023-02-28T13:53:58;24;19;12
34240;PMS7003;20503;50.200;19.508;2023-02-28T14:09:38;28;16;11
34240;PMS7003;20503;50.200;19.508;2023-02-28T14:19:56;38;30;17
34240;PMS7003;20503;50.200;19.508;2023-02-28T14:30:20;33;22;13
34240;PMS7003;20503;50.200;19.508;2023-02-28T14:40:42;22;17;11
34240;PMS7003;20503;50.200;19.508;2023-02-28T14:45:49;28;23;13
34240;PMS7003;20503;50.200;19.508;2023-02-28T14:50:59;30;17;12
34240;PMS7003;20503;50.200;19.508;2023-02-28T14:56:02;24;18;12
34240;PMS7003;20503;50.200;19.508;2023-02-28T15:01:04;22;20;13
34240;PMS7003;20503;50.200;19.508;2023-02-28T15:11:18;18;15;10
34240;PMS7003;20503;50.200;19.508;2023-02-28T15:21:42;27;21;14
34240;PMS7003;20503;50.200;19.508;2023-02-28T15:26:47;23;18;11
34240;PMS7003;20503;50.200;19.508;2023-02-28T15:32:05;24;18;12
34240;PMS7003;20503;50.200;19.508;2023-02-28T15:42:21;21;13;9
34240;PMS7003;20503;50.200;19.508;2023-02-28T15:47:30;52;41;22
34240;PMS7003;20503;50.200;19.508;2023-02-28T15:57:41;40;24;15
34240;PMS7003;20503;50.200;19.508;2023-02-28T16:02:47;47;34;20
34240;PMS7003;20503;50.200;19.508;2023-02-28T16:07:57;46;33;21
34240;PMS7003;20503;50.200;19.508;2023-02-28T16:13:05;44;34;19
34240;PMS7003;20503;50.200;19.508;2023-02-28T16:18:07;53;35;20
34240;PMS7003;20503;50.200;19.508;2023-02-28T16:23:14;44;31;17
34240;PMS7003;20503;50.200;19.508;2023-02-28T16:28:18;51;33;19
34240;PMS7003;20503;50.200;19.508;2023-02-28T16:33:21;66;47;27
34240;PMS7003;20503;50.200;19.508;2023-02-28T16:38:23;61;44;28
34240;PMS7003;20503;50.200;19.508;2023-02-28T16:43:28;57;40;22
34240;PMS7003;20503;50.200;19.508;2023-02-28T16:48:30;108;88;49
34240;PMS7003;20503;50.200;19.508;2023-02-28T16:53:31;54;38;22
34240;PMS7003;20503;50.200;19.508;2023-02-28T16:58:33;58;40;23
34240;PMS7003;20503;50.200;19.508;2023-02-28T17:03:36;57;37;21
34240;PMS7003;20503;50.200;19.508;2023-02-28T17:08:38;67;47;27
34240;PMS7003;20503;50.200;19.508;2023-02-28T17:13:39;75;52;29
34240;PMS7003;20503;50.200;19.508;2023-02-28T17:18:40;75;53;29
34240;PMS7003;20503;50.200;19.508;2023-02-28T17:23:42;71;49;28
34240;PMS7003;20503;50.200;19.508;2023-02-28T17:28:44;59;39;22
34240;PMS7003;20503;50.200;19.508;2023-02-28T17:33:46;53;38;20
34240;PMS7003;20503;50.200;19.508;2023-02-28T17:38:48;58;39;21
34240;PMS7003;20503;50.200;19.508;2023-02-28T17:43:51;53;37;21
34240;PMS7003;20503;50.200;19.508;2023-02-28T17:48:52;52;36;22
34240;PMS7003;20503;50.200;19.508;2023-02-28T17:59:15;64;44;26
34240;PMS7003;20503;50.200;19.508;2023-02-28T18:04:16;60;45;26
34240;PMS7003;20503;50.200;19.508;2023-02-28T18:09:19;54;40;23
34240;PMS7003;20503;50.200;19.508;2023-02-28T18:14:23;68;44;26
34240;PMS7003;20503;50.200;19.508;2023-02-28T18:22:41;47;34;22
34240;PMS7003;20503;50.200;19.508;2023-02-28T18:27:49;46;35;20
34240;PMS7003;20503;50.200;19.508;2023-02-28T18:32:59;50;39;21
34240;PMS7003;20503;50.200;19.508;2023-02-28T18:38:08;54;38;21
34240;PMS7003;20503;50.200;19.508;2023-02-28T18:43:14;54;40;23
34240;PMS7003;20503;50.200;19.508;2023-02-28T18:48:20;62;43;24
34240;PMS7003;20503;50.200;19.508;2023-02-28T18:53:28;59;41;25
34240;PMS7003;20503;50.200;19.508;2023-02-28T18:58:36;60;42;24
34240;PMS7003;20503;50.200;19.508;2023-02-28T19:03:45;35;24;13
34240;PMS7003;20503;50.200;19.508;2023-02-28T19:08:56;37;24;15
34240;PMS7003;20503;50.200;19.508;2023-02-28T19:14:01;60;45;27
34240;PMS7003;20503;50.200;19.508;2023-02-28T19:19:09;62;44;26
34240;PMS7003;20503;50.200;19.508;2023-02-28T19:24:16;68;46;27
34240;PMS7003;20503;50.200;19.508;2023-02-28T19:29:24;65;45;26
34240;PMS7003;20503;50.200;19.508;2023-02-28T19:34:32;59;40;22
34240;PMS7003;20503;50.200;19.508;2023-02-28T19:39:43;70;47;28
34240;PMS7003;20503;50.200;19.508;2023-02-28T19:44:48;62;45;26
34240;PMS7003;20503;50.200;19.508;2023-02-28T19:49:56;64;47;28
34240;PMS7003;20503;50.200;19.508;2023-02-28T19:55:05;69;49;27
34240;PMS7003;20503;50.200;19.508;2023-02-28T20:00:13;70;49;29
34240;PMS7003;20503;50.200;19.508;2023-02-28T20:05:21;65;48;28
34240;PMS7003;20503;50.200;19.508;2023-02-28T20:10:29;64;43;26
34240;PMS7003;20503;50.200;19.508;2023-02-28T20:15:37;68;49;29
34240;PMS7003;20503;50.200;19.508;2023-02-28T20:20:45;54;39;22
34240;PMS7003;20503;50.200;19.508;2023-02-28T20:25:53;44;32;18
34240;PMS7003;20503;50.200;19.508;2023-02-28T20:31:01;51;34;20
34240;PMS7003;20503;50.200;19.508;2023-02-28T20:36:10;59;42;23
34240;PMS7003;20503;50.200;19.508;2023-02-28T20:41:17;59;45;24
34240;PMS7003;20503;50.200;19.508;2023-02-28T20:46:26;54;37;22
34240;PMS7003;20503;50.200;19.508;2023-02-28T20:51:34;53;40;24
34240;PMS7003;20503;50.200;19.508;2023-02-28T20:56:41;53;37;22
34240;PMS7003;20503;50.200;19.508;2023-02-28T21:01:50;42;30;18
34240;PMS7003;20503;50.200;19.508;2023-02-28T21:06:57;48;30;18
34240;PMS7003;20503;50.200;19.508;2023-02-28T21:12:05;53;38;22
34240;PMS7003;20503;50.200;19.508;2023-02-28T21:17:12;56;39;24
34240;PMS7003;20503;50.200;19.508;2023-02-28T21:22:20;57;40;23
34240;PMS7003;20503;50.200;19.508;2023-02-28T21:27:29;64;46;28
34240;PMS7003;20503;50.200;19.508;2023-02-28T21:32:36;43;32;18
34240;PMS7003;20503;50.200;19.508;2023-02-28T21:37:44;45;33;19
34240;PMS7003;20503;50.200;19.508;2023-02-28T21:42:52;50;37;23
34240;PMS7003;20503;50.200;19.508;2023-02-28T21:48:00;61;43;25
34240;PMS7003;20503;50.200;19.508;2023-02-28T21:53:07;59;40;24
34240;PMS7003;20503;50.200;19.508;2023-02-28T21:58:16;51;34;20
34240;PMS7003;20503;50.200;19.508;2023-02-28T22:03:24;59;41;24
34240;PMS7003;20503;50.200;19.508;2023-02-28T22:08:32;53;38;22
34240;PMS7003;20503;50.200;19.508;2023-02-28T22:13:40;47;33;20
34240;PMS7003;20503;50.200;19.508;2023-02-28T22:18:48;54;40;24
34240;PMS7003;20503;50.200;19.508;2023-02-28T22:23:56;65;49;30
34240;PMS7003;20503;50.200;19.508;2023-02-28T22:29:04;70;48;30
34240;PMS7003;20503;50.200;19.508;2023-02-28T22:34:12;68;50;30
34240;PMS7003;20503;50.200;19.508;2023-02-28T22:39:20;66;48;28
34240;PMS7003;20503;50.200;19.508;2023-02-28T22:44:28;70;49;30
34240;PMS7003;20503;50.200;19.508;2023-02-28T22:49:36;73;51;30
34240;PMS7003;20503;50.200;19.508;2023-02-28T22:54:47;80;60;33
34240;PMS7003;20503;50.200;19.508;2023-02-28T22:59:52;72;47;28
34240;PMS7003;20503;50.200;19.508;2023-02-28T23:05:00;67;47;28
34240;PMS7003;20503;50.200;19.508;2023-02-28T23:10:10;54;39;24
34240;PMS7003;20503;50.200;19.508;2023-02-28T23:15:17;67;46;28
34240;PMS7003;20503;50.200;19.508;2023-02-28T23:20:26;76;53;30
34240;PMS7003;20503;50.200;19.508;2023-02-28T23:25:33;57;40;24
34240;PMS7003;20503;50.200;19.508;2023-02-28T23:30:41;33;27;14
34240;PMS7003;20503;50.200;19.508;2023-02-28T23:35:49;50;35;20
34240;PMS7003;20503;50.200;19.508;2023-02-28T23:40:57;53;34;22
34240;PMS7003;20503;50.200;19.508;2023-02-28T23:46:05;44;34;19
34240;PMS7003;20503;50.200;19.508;2023-02-28T23:51:17;52;36;22
34240;PMS7003;20503;50.200;19.508;2023-02-28T23:56:22;49;34;21
